| time (UTC) | temp F | wind direction | speed knots | gust knots | rain 1hr in | rain 24hr in | rain mn in | humidity % | barometer mb |
| 20260506031542 | 50 | 307 | 0.0 | 0.0 | 0.00 | 0.00 | 0.00 | 63 | 1011.0 |
| 20260506030527 | 50 | 307 | 0.0 | 0.0 | 0.00 | 0.00 | 0.00 | 64 | 1010.9 |
| 20260506025538 | 50 | 307 | 0.0 | 0.0 | 0.00 | 0.00 | 0.00 | 63 | 1010.9 |
| 20260506024520 | 50 | 307 | 0.0 | 0.0 | 0.00 | 0.00 | 0.00 | 64 | 1010.7 |
| 20260506023507 | 50 | 307 | 0.0 | 0.0 | 0.00 | 0.00 | 0.00 | 63 | 1010.5 |
| 20260506022449 | 50 | 307 | 0.0 | 0.0 | 0.00 | 0.00 | 0.00 | 61 | 1010.6 |
| 20260506021424 | 50 | 307 | 0.0 | 0.0 | 0.00 | 0.01 | 0.00 | 63 | 1010.7 |
| 20260506020357 | 50 | 307 | 0.0 | 0.0 | 0.00 | 0.01 | 0.00 | 62 | 1010.3 |
| 20260506015407 | 51 | 307 | 0.0 | 0.0 | 0.00 | 0.02 | 0.00 | 61 | 1010.0 |
| 20260506014343 | 51 | 307 | 0.0 | 0.0 | 0.00 | 0.02 | 0.00 | 59 | 1009.8 |
| 20260506013326 | 51 | 307 | 0.0 | 0.0 | 0.00 | 0.04 | 0.00 | 57 | 1009.7 |
| 20260506012334 | 51 | 307 | 0.0 | 0.0 | 0.00 | 0.04 | 0.00 | 57 | 1009.9 |
| 20260506011343 | 52 | 307 | 0.0 | 0.0 | 0.00 | 0.04 | 0.00 | 57 | 1009.8 |
| 20260506010318 | 52 | 307 | 0.0 | 0.0 | 0.00 | 0.04 | 0.00 | 56 | 1009.8 |
| 20260506005324 | 52 | 307 | 0.0 | 0.0 | 0.00 | 0.04 | 0.00 | 55 | 1009.5 |
| 20260506004321 | 52 | 307 | 0.0 | 0.0 | 0.00 | 0.04 | 0.00 | 55 | 1009.5 |
| 20260506003253 | 53 | 307 | 0.0 | 0.0 | 0.00 | 0.04 | 0.00 | 55 | 1009.3 |
| 20260506002246 | 53 | 307 | 0.0 | 0.0 | 0.00 | 0.04 | 0.00 | 54 | 1009.3 |
| 20260506001302 | 53 | 307 | 0.0 | 0.0 | 0.00 | 0.04 | 0.00 | 54 | 1009.2 |
| 20260506000316 | 53 | 307 | 0.0 | 0.0 | 0.00 | 0.04 | 0.00 | 52 | 1009.2 |
| 20260505235250 | 53 | 307 | 0.0 | 0.0 | 0.00 | 0.04 | 0.00 | 52 | 1009.1 |
| 20260505234307 | 54 | 307 | 0.0 | 0.0 | 0.00 | 0.04 | 0.00 | 51 | 1009.0 |
| 20260505233238 | 54 | 306 | 0.0 | 0.0 | 0.00 | 0.04 | 0.00 | 49 | 1009.2 |
| 20260505232248 | 54 | 306 | 0.0 | 0.0 | 0.00 | 0.04 | 0.00 | 49 | 1009.2 |
| 20260505231233 | 54 | 305 | 0.0 | 0.0 | 0.00 | 0.04 | 0.00 | 48 | 1009.2 |
| 20260505230243 | 54 | 300 | 0.0 | 0.0 | 0.00 | 0.04 | 0.00 | 48 | 1009.3 |
| 20260505225242 | 54 | 317 | 0.0 | 0.0 | 0.00 | 0.04 | 0.00 | 48 | 1009.1 |
| 20260505224306 | 54 | 298 | 0.0 | 0.0 | 0.00 | 0.04 | 0.00 | 47 | 1009.3 |
| 20260505223254 | 55 | 285 | 0.0 | 0.0 | 0.00 | 0.04 | 0.00 | 47 | 1009.4 |
| 20260505222245 | 55 | 322 | 0.0 | 0.0 | 0.00 | 0.04 | 0.00 | 48 | 1009.4 |
| 20260505221241 | 55 | 296 | 0.0 | 0.0 | 0.00 | 0.04 | 0.00 | 48 | 1009.2 |
| 20260505220222 | 55 | 292 | 0.0 | 0.0 | 0.00 | 0.04 | 0.00 | 48 | 1009.4 |
| 20260505215153 | 54 | 303 | 0.0 | 0.0 | 0.00 | 0.04 | 0.00 | 49 | 1009.5 |
| 20260505214150 | 54 | 309 | 0.0 | 0.0 | 0.00 | 0.04 | 0.00 | 50 | 1009.6 |
| 20260505213211 | 54 | 309 | 0.0 | 0.0 | 0.00 | 0.04 | 0.00 | 50 | 1009.7 |
| 20260505212231 | 54 | 293 | 0.0 | 0.0 | 0.00 | 0.04 | 0.00 | 49 | 1009.5 |
| 20260505211204 | 54 | 293 | 0.0 | 0.0 | 0.00 | 0.04 | 0.00 | 48 | 1009.5 |
| 20260505210140 | 54 | 329 | 0.0 | 0.0 | 0.00 | 0.04 | 0.00 | 48 | 1009.5 |
| 20260505205116 | 54 | 295 | 0.0 | 0.0 | 0.00 | 0.04 | 0.00 | 48 | 1009.7 |
| 20260505204120 | 54 | 287 | 0.0 | 0.0 | 0.00 | 0.04 | 0.00 | 48 | 1010.1 |
| 20260505201951 | 55 | 267 | 0.0 | 0.0 | 0.00 | 0.04 | 0.00 | 51 | 1010.2 |
| 20260505200951 | 54 | 277 | 0.0 | 0.0 | 0.00 | 0.04 | 0.00 | 50 | 1010.2 |
| 20260505194812 | 54 | 304 | 0.0 | 0.0 | 0.00 | 0.04 | 0.00 | 51 | 1010.4 |
| 20260505193740 | 54 | 290 | 0.0 | 0.0 | 0.00 | 0.04 | 0.00 | 51 | 1010.5 |
| 20260505192715 | 54 | 342 | 0.0 | 0.0 | 0.00 | 0.04 | 0.00 | 59 | 1010.4 |
| 20260505191736 | 53 | 236 | 0.0 | 0.0 | 0.00 | 0.04 | 0.00 | 62 | 1010.4 |
| 20260505190738 | 53 | 234 | 0.0 | 0.0 | 0.00 | 0.04 | 0.00 | 62 | 1010.4 |
| 20260505185757 | 54 | 287 | 0.0 | 0.0 | 0.00 | 0.04 | 0.00 | 62 | 1010.3 |
| 20260505184737 | 53 | 288 | 0.0 | 0.0 | 0.00 | 0.04 | 0.00 | 61 | 1010.3 |
| 20260505183753 | 53 | 290 | 0.0 | 0.0 | 0.00 | 0.04 | 0.00 | 63 | 1010.4 |
| 20260505182749 | 53 | 290 | 0.0 | 0.0 | 0.00 | 0.04 | 0.00 | 61 | 1010.4 |
| 20260505181717 | 53 | 290 | 0.0 | 0.0 | 0.00 | 0.04 | 0.00 | 62 | 1010.5 |
| 20260505175602 | 52 | 290 | 0.0 | 0.0 | 0.00 | 0.04 | 0.00 | 59 | 1010.6 |
| 20260505174616 | 52 | 290 | 0.0 | 0.0 | 0.00 | 0.04 | 0.00 | 61 | 1010.7 |
| 20260505173556 | 52 | 293 | 0.0 | 0.0 | 0.00 | 0.04 | 0.00 | 60 | 1010.6 |
| 20260505172536 | 52 | 296 | 0.0 | 0.0 | 0.00 | 0.04 | 0.00 | 61 | 1010.6 |
| 20260505170410 | 52 | 323 | 0.0 | 0.0 | 0.00 | 0.04 | 0.00 | 59 | 1010.4 |
| 20260505165400 | 53 | 323 | 0.0 | 0.0 | 0.00 | 0.04 | 0.00 | 61 | 1010.2 |
| 20260505164408 | 52 | 315 | 0.0 | 0.0 | 0.00 | 0.04 | 0.00 | 61 | 1010.1 |
| 20260505163419 | 52 | 298 | 0.0 | 0.0 | 0.00 | 0.04 | 0.00 | 60 | 1010.2 |
| 20260505162422 | 52 | 300 | 0.0 | 0.0 | 0.00 | 0.04 | 0.00 | 60 | 1010.2 |
| 20260505161411 | 52 | 341 | 0.0 | 0.0 | 0.00 | 0.04 | 0.00 | 60 | 1010.1 |
| 20260505160337 | 53 | 324 | 0.0 | 0.0 | 0.00 | 0.04 | 0.00 | 62 | 1010.0 |
| 20260505153147 | 52 | 336 | 0.0 | 0.0 | 0.00 | 0.04 | 0.00 | 64 | 1009.3 |
| 20260505150926 | 52 | 328 | 0.0 | 0.0 | 0.00 | 0.04 | 0.00 | 65 | 1009.2 |
| 20260505140623 | 47 | 323 | 0.0 | 0.0 | 0.00 | 0.04 | 0.00 | 80 | 1008.8 |
| 20260505124636 | 45 | 312 | 0.0 | 0.0 | 0.00 | 0.04 | 0.00 | 81 | 1009.3 |
| 20260505123634 | 45 | 308 | 0.0 | 0.0 | 0.00 | 0.04 | 0.00 | 80 | 1009.7 |
| 20260505122650 | 46 | 315 | 0.0 | 0.0 | 0.00 | 0.04 | 0.00 | 79 | 1010.0 |
| 20260505121621 | 46 | 289 | 0.0 | 0.0 | 0.00 | 0.04 | 0.00 | 77 | 1010.3 |
| 20260505115504 | 47 | 285 | 0.0 | 0.0 | 0.00 | 0.04 | 0.00 | 71 | 1010.2 |
| 20260505114443 | 47 | 256 | 0.0 | 0.0 | 0.00 | 0.04 | 0.00 | 72 | 1009.5 |
| 20260505113449 | 48 | 300 | 0.0 | 0.0 | 0.00 | 0.04 | 0.00 | 71 | 1008.2 |
| 20260505112510 | 48 | 277 | 0.0 | 0.0 | 0.00 | 0.04 | 0.00 | 71 | 1007.5 |
| 20260505111506 | 48 | 309 | 0.0 | 0.0 | 0.00 | 0.04 | 0.00 | 69 | 1007.7 |
| 20260505100138 | 50 | 340 | 0.0 | 0.0 | 0.00 | 0.04 | 0.00 | 66 | 1006.9 |
| 20260505095116 | 50 | 302 | 0.0 | 0.0 | 0.00 | 0.04 | 0.00 | 67 | 1007.1 |
| 20260505094130 | 50 | 295 | 0.0 | 0.0 | 0.00 | 0.04 | 0.00 | 68 | 1006.8 |
| 20260505093120 | 50 | 302 | 0.0 | 0.0 | 0.00 | 0.04 | 0.00 | 67 | 1006.9 |
| 20260505092115 | 50 | 323 | 0.0 | 0.0 | 0.00 | 0.04 | 0.00 | 69 | 1006.7 |
| 20260505091103 | 50 | 298 | 0.0 | 0.0 | 0.00 | 0.04 | 0.00 | 68 | 1007.4 |
| 20260505090122 | 50 | 309 | 0.0 | 0.0 | 0.00 | 0.04 | 0.00 | 67 | 1006.8 |
| 20260505083936 | 51 | 291 | 0.0 | 0.0 | 0.00 | 0.04 | 0.00 | 68 | 1006.4 |
| 20260505082938 | 51 | 292 | 0.0 | 0.0 | 0.00 | 0.04 | 0.00 | 68 | 1006.2 |
| 20260505081939 | 51 | 315 | 0.0 | 0.0 | 0.00 | 0.04 | 0.00 | 68 | 1006.0 |
| 20260505080930 | 51 | 317 | 0.0 | 0.0 | 0.00 | 0.04 | 0.00 | 68 | 1005.8 |
| 20260505075930 | 51 | 304 | 0.0 | 0.0 | 0.00 | 0.04 | 0.00 | 68 | 1005.7 |
| 20260505073830 | 51 | 297 | 0.0 | 0.0 | 0.00 | 0.04 | 0.00 | 68 | 1005.0 |
| 20260505072759 | 51 | 297 | 0.0 | 0.0 | 0.00 | 0.04 | 0.00 | 68 | 1004.8 |
| 20260505071735 | 52 | 297 | 0.0 | 0.0 | 0.00 | 0.04 | 0.00 | 67 | 1004.6 |
| 20260505065551 | 52 | 332 | 0.0 | 0.0 | 0.00 | 0.04 | 0.00 | 68 | 1004.3 |
| 20260505064519 | 53 | 332 | 0.0 | 0.0 | 0.00 | 0.04 | 0.00 | 69 | 1004.3 |
| 20260505063451 | 53 | 333 | 0.0 | 0.0 | 0.00 | 0.04 | 0.00 | 72 | 1004.1 |
| 20260505062415 | 54 | 333 | 0.0 | 0.0 | 0.00 | 0.04 | 0.00 | 72 | 1003.9 |
| 20260505061408 | 54 | 349 | 0.0 | 0.0 | 0.00 | 0.04 | 0.00 | 73 | 1003.6 |
| 20260505060346 | 54 | 351 | 0.0 | 0.0 | 0.00 | 0.04 | 0.00 | 75 | 1003.5 |
| 20260505055330 | 55 | 351 | 0.0 | 0.0 | 0.00 | 0.04 | 0.00 | 74 | 1003.2 |
| 20260505054351 | 55 | 351 | 0.0 | 0.0 | 0.00 | 0.04 | 0.00 | 73 | 1003.5 |
| 20260505053335 | 56 | 351 | 0.0 | 0.0 | 0.00 | 0.04 | 0.00 | 73 | 1003.2 |
| 20260505051158 | 56 | 344 | 0.0 | 0.0 | 0.00 | 0.04 | 0.00 | 78 | 1002.8 |
| 20260505040804 | 60 | 11 | 0.0 | 0.0 | 0.00 | 0.04 | 0.04 | 78 | 1001.8 |
| 20260505035756 | 60 | 329 | 0.0 | 0.0 | 0.00 | 0.04 | 0.04 | 79 | 1001.5 |
| 20260505034820 | 60 | 311 | 0.0 | 0.0 | 0.00 | 0.04 | 0.04 | 81 | 1001.2 |